sensor_id;sensor_type;location;lat;lon;timestamp;pressure;altitude;pressure_sealevel;temperature;humidity
81999;BME280;71598;46.516;-122.928;2023-08-20T00:00:28;99661.69;;;22.30;20.11
81999;BME280;71598;46.516;-122.928;2023-08-20T00:03:00;99661.89;;;22.53;20.15
81999;BME280;71598;46.516;-122.928;2023-08-20T00:05:19;99660.25;;;22.64;20.11
81999;BME280;71598;46.516;-122.928;2023-08-20T00:07:44;99654.01;;;22.57;20.04
81999;BME280;71598;46.516;-122.928;2023-08-20T00:10:09;99649.91;;;22.56;20.00
81999;BME280;71598;46.516;-122.928;2023-08-20T00:12:35;99651.78;;;22.75;19.97
81999;BME280;71598;46.516;-122.928;2023-08-20T00:15:01;99654.20;;;22.71;19.95
81999;BME280;71598;46.516;-122.928;2023-08-20T00:17:27;99651.73;;;22.86;19.95
81999;BME280;71598;46.516;-122.928;2023-08-20T00:19:51;99650.35;;;22.91;19.91
81999;BME280;71598;46.516;-122.928;2023-08-20T00:22:16;99650.96;;;22.82;19.94
81999;BME280;71598;46.516;-122.928;2023-08-20T00:24:41;99650.62;;;22.93;19.95
81999;BME280;71598;46.516;-122.928;2023-08-20T00:27:06;99654.72;;;22.95;19.97
81999;BME280;71598;46.516;-122.928;2023-08-20T00:29:31;99652.80;;;22.72;19.97
81999;BME280;71598;46.516;-122.928;2023-08-20T00:31:57;99646.36;;;23.25;19.95
81999;BME280;71598;46.516;-122.928;2023-08-20T00:34:22;99651.00;;;22.95;19.94
81999;BME280;71598;46.516;-122.928;2023-08-20T00:36:47;99648.21;;;23.01;19.91
81999;BME280;71598;46.516;-122.928;2023-08-20T00:39:14;99641.75;;;22.88;19.97
81999;BME280;71598;46.516;-122.928;2023-08-20T00:41:38;99644.58;;;23.13;19.88
81999;BME280;71598;46.516;-122.928;2023-08-20T00:44:03;99643.55;;;23.01;19.87
81999;BME280;71598;46.516;-122.928;2023-08-20T00:46:29;99644.69;;;23.02;19.86
81999;BME280;71598;46.516;-122.928;2023-08-20T00:48:55;99646.48;;;22.80;19.87
81999;BME280;71598;46.516;-122.928;2023-08-20T00:51:19;99655.49;;;22.84;19.88
81999;BME280;71598;46.516;-122.928;2023-08-20T00:53:45;99652.83;;;22.77;19.84
81999;BME280;71598;46.516;-122.928;2023-08-20T00:56:10;99656.22;;;23.11;19.88
81999;BME280;71598;46.516;-122.928;2023-08-20T00:58:35;99658.72;;;23.23;19.90
81999;BME280;71598;46.516;-122.928;2023-08-20T01:01:00;99653.78;;;22.86;19.84
81999;BME280;71598;46.516;-122.928;2023-08-20T01:03:26;99653.27;;;22.79;19.83
81999;BME280;71598;46.516;-122.928;2023-08-20T01:05:58;99654.43;;;22.98;19.85
81999;BME280;71598;46.516;-122.928;2023-08-20T01:08:26;99656.28;;;22.95;19.86
81999;BME280;71598;46.516;-122.928;2023-08-20T01:10:51;99651.49;;;23.12;19.77
81999;BME280;71598;46.516;-122.928;2023-08-20T01:13:08;99651.12;;;23.19;19.77
81999;BME280;71598;46.516;-122.928;2023-08-20T01:15:34;99647.50;;;23.01;19.80
81999;BME280;71598;46.516;-122.928;2023-08-20T01:17:59;99649.92;;;23.03;19.82
81999;BME280;71598;46.516;-122.928;2023-08-20T01:20:29;99642.35;;;22.90;19.80
81999;BME280;71598;46.516;-122.928;2023-08-20T01:23:09;99641.59;;;23.29;19.85
81999;BME280;71598;46.516;-122.928;2023-08-20T01:25:28;99644.57;;;23.29;19.81
81999;BME280;71598;46.516;-122.928;2023-08-20T01:27:51;99642.21;;;23.49;19.76
81999;BME280;71598;46.516;-122.928;2023-08-20T01:30:09;99640.43;;;23.36;19.81
81999;BME280;71598;46.516;-122.928;2023-08-20T01:32:33;99642.21;;;23.43;19.89
81999;BME280;71598;46.516;-122.928;2023-08-20T01:35:00;99643.66;;;23.42;19.81
81999;BME280;71598;46.516;-122.928;2023-08-20T01:37:23;99644.49;;;23.20;20.02
81999;BME280;71598;46.516;-122.928;2023-08-20T01:39:49;99646.57;;;23.18;20.06
81999;BME280;71598;46.516;-122.928;2023-08-20T01:42:15;99644.06;;;23.31;20.07
81999;BME280;71598;46.516;-122.928;2023-08-20T01:44:40;99646.27;;;22.98;20.10
81999;BME280;71598;46.516;-122.928;2023-08-20T01:47:06;99641.10;;;23.20;20.13
81999;BME280;71598;46.516;-122.928;2023-08-20T01:49:32;99639.44;;;23.14;20.14
81999;BME280;71598;46.516;-122.928;2023-08-20T01:51:56;99639.03;;;23.18;20.20
81999;BME280;71598;46.516;-122.928;2023-08-20T01:54:21;99638.70;;;22.76;20.26
81999;BME280;71598;46.516;-122.928;2023-08-20T01:56:47;99638.58;;;22.91;20.33
81999;BME280;71598;46.516;-122.928;2023-08-20T01:59:12;99639.68;;;22.95;20.31
81999;BME280;71598;46.516;-122.928;2023-08-20T02:01:37;99642.72;;;23.07;20.24
81999;BME280;71598;46.516;-122.928;2023-08-20T02:04:03;99646.22;;;22.96;20.31
81999;BME280;71598;46.516;-122.928;2023-08-20T02:06:29;99650.75;;;22.89;20.43
81999;BME280;71598;46.516;-122.928;2023-08-20T02:08:53;99650.12;;;22.15;20.61
81999;BME280;71598;46.516;-122.928;2023-08-20T02:11:19;99650.99;;;22.13;20.79
81999;BME280;71598;46.516;-122.928;2023-08-20T02:13:44;99648.17;;;22.06;20.95
81999;BME280;71598;46.516;-122.928;2023-08-20T02:16:09;99650.98;;;22.04;21.06
81999;BME280;71598;46.516;-122.928;2023-08-20T02:18:35;99648.09;;;22.21;21.08
81999;BME280;71598;46.516;-122.928;2023-08-20T02:21:00;99647.43;;;21.99;21.10
81999;BME280;71598;46.516;-122.928;2023-08-20T02:23:25;99645.04;;;22.31;21.06
81999;BME280;71598;46.516;-122.928;2023-08-20T02:25:51;99648.01;;;22.14;21.11
81999;BME280;71598;46.516;-122.928;2023-08-20T02:28:16;99649.10;;;22.20;21.11
81999;BME280;71598;46.516;-122.928;2023-08-20T02:30:43;99654.88;;;22.27;21.15
81999;BME280;71598;46.516;-122.928;2023-08-20T02:33:06;99659.62;;;22.57;21.01
81999;BME280;71598;46.516;-122.928;2023-08-20T02:35:32;99660.98;;;22.47;20.98
81999;BME280;71598;46.516;-122.928;2023-08-20T02:37:58;99664.73;;;22.46;20.93
81999;BME280;71598;46.516;-122.928;2023-08-20T02:40:23;99669.62;;;22.57;20.94
81999;BME280;71598;46.516;-122.928;2023-08-20T02:42:48;99671.86;;;22.58;20.91
81999;BME280;71598;46.516;-122.928;2023-08-20T02:45:13;99672.62;;;23.23;20.51
81999;BME280;71598;46.516;-122.928;2023-08-20T02:47:39;99671.63;;;24.22;20.05
81999;BME280;71598;46.516;-122.928;2023-08-20T02:50:07;99673.85;;;24.24;19.92
81999;BME280;71598;46.516;-122.928;2023-08-20T02:52:30;99671.85;;;24.49;19.91
81999;BME280;71598;46.516;-122.928;2023-08-20T02:54:56;99672.54;;;24.30;19.91
81999;BME280;71598;46.516;-122.928;2023-08-20T02:57:21;99672.71;;;24.25;20.02
81999;BME280;71598;46.516;-122.928;2023-08-20T02:59:47;99672.59;;;23.78;20.10
81999;BME280;71598;46.516;-122.928;2023-08-20T03:02:12;99679.95;;;23.84;20.11
81999;BME280;71598;46.516;-122.928;2023-08-20T03:04:38;99685.46;;;23.78;20.14
81999;BME280;71598;46.516;-122.928;2023-08-20T03:07:03;99691.63;;;24.00;20.08
81999;BME280;71598;46.516;-122.928;2023-08-20T03:09:29;99693.12;;;23.98;20.04
81999;BME280;71598;46.516;-122.928;2023-08-20T03:11:53;99692.13;;;23.90;20.01
81999;BME280;71598;46.516;-122.928;2023-08-20T03:14:18;99691.08;;;23.85;20.05
81999;BME280;71598;46.516;-122.928;2023-08-20T03:16:44;99694.70;;;23.87;20.02
81999;BME280;71598;46.516;-122.928;2023-08-20T03:19:17;99698.17;;;24.32;20.01
81999;BME280;71598;46.516;-122.928;2023-08-20T03:21:34;99699.14;;;23.84;19.98
81999;BME280;71598;46.516;-122.928;2023-08-20T03:24:00;99699.65;;;24.25;19.96
81999;BME280;71598;46.516;-122.928;2023-08-20T03:26:25;99701.65;;;23.82;20.00
81999;BME280;71598;46.516;-122.928;2023-08-20T03:28:50;99701.04;;;24.31;19.96
81999;BME280;71598;46.516;-122.928;2023-08-20T03:31:15;99701.99;;;24.19;19.98
81999;BME280;71598;46.516;-122.928;2023-08-20T03:33:41;99702.17;;;24.14;19.96
81999;BME280;71598;46.516;-122.928;2023-08-20T03:36:07;99699.89;;;24.15;19.93
81999;BME280;71598;46.516;-122.928;2023-08-20T03:38:31;99699.24;;;24.07;19.94
81999;BME280;71598;46.516;-122.928;2023-08-20T03:40:57;99699.54;;;24.26;19.96
81999;BME280;71598;46.516;-122.928;2023-08-20T03:43:22;99700.91;;;24.04;19.98
81999;BME280;71598;46.516;-122.928;2023-08-20T03:45:52;99700.46;;;23.94;20.00
81999;BME280;71598;46.516;-122.928;2023-08-20T03:48:13;99706.33;;;24.26;20.00
81999;BME280;71598;46.516;-122.928;2023-08-20T03:50:39;99707.70;;;24.09;20.00
81999;BME280;71598;46.516;-122.928;2023-08-20T03:53:03;99707.56;;;24.33;20.02
81999;BME280;71598;46.516;-122.928;2023-08-20T03:55:28;99711.13;;;24.05;20.02
81999;BME280;71598;46.516;-122.928;2023-08-20T03:57:54;99711.10;;;24.14;20.07
81999;BME280;71598;46.516;-122.928;2023-08-20T04:00:20;99714.53;;;23.82;20.15
81999;BME280;71598;46.516;-122.928;2023-08-20T04:02:46;99718.36;;;23.83;20.21
81999;BME280;71598;46.516;-122.928;2023-08-20T04:05:10;99722.53;;;23.89;20.21
81999;BME280;71598;46.516;-122.928;2023-08-20T04:07:35;99723.99;;;24.03;20.17
81999;BME280;71598;46.516;-122.928;2023-08-20T04:10:00;99724.00;;;24.06;20.19
81999;BME280;71598;46.516;-122.928;2023-08-20T04:12:26;99729.51;;;23.64;20.18
81999;BME280;71598;46.516;-122.928;2023-08-20T04:14:52;99734.25;;;23.67;20.22
81999;BME280;71598;46.516;-122.928;2023-08-20T04:17:16;99738.77;;;23.63;20.25
81999;BME280;71598;46.516;-122.928;2023-08-20T04:19:42;99743.30;;;23.90;20.28
81999;BME280;71598;46.516;-122.928;2023-08-20T04:22:07;99745.93;;;23.71;20.21
81999;BME280;71598;46.516;-122.928;2023-08-20T04:24:33;99747.57;;;24.18;20.14
81999;BME280;71598;46.516;-122.928;2023-08-20T04:26:58;99750.01;;;24.06;20.04
81999;BME280;71598;46.516;-122.928;2023-08-20T04:29:25;99755.41;;;23.83;20.04
81999;BME280;71598;46.516;-122.928;2023-08-20T04:31:48;99756.75;;;24.14;20.05
81999;BME280;71598;46.516;-122.928;2023-08-20T04:34:14;99759.95;;;23.88;20.00
81999;BME280;71598;46.516;-122.928;2023-08-20T04:36:39;99762.43;;;24.00;19.97
81999;BME280;71598;46.516;-122.928;2023-08-20T04:39:05;99764.57;;;23.87;19.98
81999;BME280;71598;46.516;-122.928;2023-08-20T04:41:30;99762.31;;;23.76;19.95
81999;BME280;71598;46.516;-122.928;2023-08-20T04:43:55;99759.79;;;23.84;19.88
81999;BME280;71598;46.516;-122.928;2023-08-20T04:46:20;99762.30;;;23.92;19.83
81999;BME280;71598;46.516;-122.928;2023-08-20T04:48:46;99762.34;;;24.23;19.80
81999;BME280;71598;46.516;-122.928;2023-08-20T04:51:14;99763.08;;;24.19;19.77
81999;BME280;71598;46.516;-122.928;2023-08-20T04:53:37;99762.20;;;24.08;19.71
81999;BME280;71598;46.516;-122.928;2023-08-20T04:56:03;99761.46;;;24.31;19.74
81999;BME280;71598;46.516;-122.928;2023-08-20T04:58:28;99762.67;;;23.82;19.65
81999;BME280;71598;46.516;-122.928;2023-08-20T05:00:54;99769.62;;;23.78;19.47
81999;BME280;71598;46.516;-122.928;2023-08-20T05:03:19;99773.27;;;23.32;18.91
81999;BME280;71598;46.516;-122.928;2023-08-20T05:05:49;99776.81;;;23.85;18.69
81999;BME280;71598;46.516;-122.928;2023-08-20T05:08:10;99777.14;;;23.66;18.69
81999;BME280;71598;46.516;-122.928;2023-08-20T05:10:36;99777.52;;;23.99;18.68
81999;BME280;71598;46.516;-122.928;2023-08-20T05:13:01;99779.79;;;23.86;18.69
81999;BME280;71598;46.516;-122.928;2023-08-20T05:15:27;99779.02;;;24.22;18.82
81999;BME280;71598;46.516;-122.928;2023-08-20T05:17:52;99777.23;;;23.67;18.78
81999;BME280;71598;46.516;-122.928;2023-08-20T05:20:18;99783.40;;;23.77;18.90
81999;BME280;71598;46.516;-122.928;2023-08-20T05:22:43;99782.73;;;24.12;18.85
81999;BME280;71598;46.516;-122.928;2023-08-20T05:25:09;99787.60;;;24.50;18.86
81999;BME280;71598;46.516;-122.928;2023-08-20T05:27:34;99786.95;;;24.13;18.87
81999;BME280;71598;46.516;-122.928;2023-08-20T05:29:59;99786.40;;;23.92;18.88
81999;BME280;71598;46.516;-122.928;2023-08-20T05:32:24;99782.80;;;23.86;18.91
81999;BME280;71598;46.516;-122.928;2023-08-20T05:34:50;99782.68;;;24.28;18.94
81999;BME280;71598;46.516;-122.928;2023-08-20T05:37:16;99782.62;;;23.75;18.94
81999;BME280;71598;46.516;-122.928;2023-08-20T05:39:43;99781.23;;;24.08;18.94
81999;BME280;71598;46.516;-122.928;2023-08-20T05:42:07;99781.43;;;24.22;18.92
81999;BME280;71598;46.516;-122.928;2023-08-20T05:44:33;99778.99;;;24.22;18.99
81999;BME280;71598;46.516;-122.928;2023-08-20T05:46:58;99781.23;;;24.07;18.86
81999;BME280;71598;46.516;-122.928;2023-08-20T05:49:23;99781.73;;;24.07;18.85
81999;BME280;71598;46.516;-122.928;2023-08-20T05:51:51;99784.24;;;24.26;18.71
81999;BME280;71598;46.516;-122.928;2023-08-20T05:54:14;99785.47;;;24.55;18.60
81999;BME280;71598;46.516;-122.928;2023-08-20T05:56:40;99783.82;;;24.41;18.52
81999;BME280;71598;46.516;-122.928;2023-08-20T05:59:05;99786.17;;;24.69;18.52
81999;BME280;71598;46.516;-122.928;2023-08-20T06:01:31;99787.90;;;24.73;18.53
81999;BME280;71598;46.516;-122.928;2023-08-20T06:03:57;99792.39;;;24.72;18.54
81999;BME280;71598;46.516;-122.928;2023-08-20T06:06:22;99790.91;;;24.58;18.54
81999;BME280;71598;46.516;-122.928;2023-08-20T06:08:48;99787.66;;;24.59;18.52
81999;BME280;71598;46.516;-122.928;2023-08-20T06:11:14;99784.54;;;24.63;18.50
81999;BME280;71598;46.516;-122.928;2023-08-20T06:13:39;99784.36;;;24.62;18.52
81999;BME280;71598;46.516;-122.928;2023-08-20T06:16:04;99781.66;;;24.72;18.52
81999;BME280;71598;46.516;-122.928;2023-08-20T06:18:29;99782.46;;;24.63;18.51
81999;BME280;71598;46.516;-122.928;2023-08-20T06:20:55;99778.40;;;24.49;18.56
81999;BME280;71598;46.516;-122.928;2023-08-20T06:23:20;99777.33;;;24.69;18.54
81999;BME280;71598;46.516;-122.928;2023-08-20T06:25:45;99773.77;;;24.63;18.53
81999;BME280;71598;46.516;-122.928;2023-08-20T06:28:11;99773.46;;;24.67;18.51
81999;BME280;71598;46.516;-122.928;2023-08-20T06:30:36;99772.71;;;24.78;18.46
81999;BME280;71598;46.516;-122.928;2023-08-20T06:33:01;99773.78;;;24.80;18.46
81999;BME280;71598;46.516;-122.928;2023-08-20T06:35:26;99775.94;;;24.80;18.48
81999;BME280;71598;46.516;-122.928;2023-08-20T06:37:52;99776.77;;;24.51;18.55
81999;BME280;71598;46.516;-122.928;2023-08-20T06:40:17;99780.47;;;24.36;18.67
81999;BME280;71598;46.516;-122.928;2023-08-20T06:42:44;99782.50;;;24.07;18.79
81999;BME280;71598;46.516;-122.928;2023-08-20T06:45:10;99780.76;;;23.92;18.90
81999;BME280;71598;46.516;-122.928;2023-08-20T06:47:34;99784.43;;;23.63;19.03
81999;BME280;71598;46.516;-122.928;2023-08-20T06:49:59;99786.54;;;23.43;19.18
81999;BME280;71598;46.516;-122.928;2023-08-20T06:52:26;99783.30;;;23.47;19.31
81999;BME280;71598;46.516;-122.928;2023-08-20T06:54:50;99785.47;;;23.13;19.44
81999;BME280;71598;46.516;-122.928;2023-08-20T06:57:15;99783.40;;;23.42;19.54
81999;BME280;71598;46.516;-122.928;2023-08-20T06:59:41;99783.82;;;23.17;19.61
81999;BME280;71598;46.516;-122.928;2023-08-20T07:02:07;99783.21;;;23.00;19.58
81999;BME280;71598;46.516;-122.928;2023-08-20T07:04:32;99781.60;;;23.08;19.68
81999;BME280;71598;46.516;-122.928;2023-08-20T07:06:58;99783.51;;;23.07;19.74
81999;BME280;71598;46.516;-122.928;2023-08-20T07:09:25;99786.57;;;23.30;19.78
81999;BME280;71598;46.516;-122.928;2023-08-20T07:11:49;99785.78;;;23.16;19.91
81999;BME280;71598;46.516;-122.928;2023-08-20T07:14:14;99788.96;;;22.70;20.03
81999;BME280;71598;46.516;-122.928;2023-08-20T07:16:39;99794.79;;;22.70;20.02
81999;BME280;71598;46.516;-122.928;2023-08-20T07:19:05;99796.80;;;22.40;20.06
81999;BME280;71598;46.516;-122.928;2023-08-20T07:21:30;99796.49;;;22.68;20.11
81999;BME280;71598;46.516;-122.928;2023-08-20T07:23:55;99796.72;;;22.77;20.12
81999;BME280;71598;46.516;-122.928;2023-08-20T07:26:22;99795.67;;;22.46;20.19
81999;BME280;71598;46.516;-122.928;2023-08-20T07:28:47;99792.77;;;22.65;20.10
81999;BME280;71598;46.516;-122.928;2023-08-20T07:31:13;99795.52;;;22.61;20.20
81999;BME280;71598;46.516;-122.928;2023-08-20T07:33:37;99797.17;;;22.24;20.22
81999;BME280;71598;46.516;-122.928;2023-08-20T07:36:03;99795.92;;;22.50;20.24
81999;BME280;71598;46.516;-122.928;2023-08-20T07:38:28;99798.26;;;22.45;20.26
81999;BME280;71598;46.516;-122.928;2023-08-20T07:40:54;99799.25;;;22.55;20.32
81999;BME280;71598;46.516;-122.928;2023-08-20T07:43:19;99799.91;;;22.23;20.38
81999;BME280;71598;46.516;-122.928;2023-08-20T07:45:45;99801.45;;;22.24;20.44
81999;BME280;71598;46.516;-122.928;2023-08-20T07:48:10;99802.42;;;22.28;20.47
81999;BME280;71598;46.516;-122.928;2023-08-20T07:50:36;99803.26;;;22.21;20.52
81999;BME280;71598;46.516;-122.928;2023-08-20T07:53:04;99802.15;;;22.38;20.50
81999;BME280;71598;46.516;-122.928;2023-08-20T07:55:27;99798.76;;;22.18;20.48
81999;BME280;71598;46.516;-122.928;2023-08-20T07:57:52;99796.80;;;22.47;20.51
81999;BME280;71598;46.516;-122.928;2023-08-20T08:00:18;99796.54;;;22.11;20.53
81999;BME280;71598;46.516;-122.928;2023-08-20T08:02:44;99798.17;;;22.25;20.57
81999;BME280;71598;46.516;-122.928;2023-08-20T08:05:09;99798.07;;;21.89;20.62
81999;BME280;71598;46.516;-122.928;2023-08-20T08:07:33;99799.87;;;22.08;20.62
81999;BME280;71598;46.516;-122.928;2023-08-20T08:09:58;99797.83;;;22.14;20.62
81999;BME280;71598;46.516;-122.928;2023-08-20T08:12:24;99799.08;;;22.22;20.65
81999;BME280;71598;46.516;-122.928;2023-08-20T08:14:49;99801.72;;;22.06;20.66
81999;BME280;71598;46.516;-122.928;2023-08-20T08:17:14;99802.04;;;21.95;20.72
81999;BME280;71598;46.516;-122.928;2023-08-20T08:19:40;99805.58;;;21.89;20.74
81999;BME280;71598;46.516;-122.928;2023-08-20T08:22:05;99805.50;;;22.08;20.77
81999;BME280;71598;46.516;-122.928;2023-08-20T08:24:31;99802.96;;;21.95;20.78
81999;BME280;71598;46.516;-122.928;2023-08-20T08:26:55;99802.44;;;21.69;20.84
81999;BME280;71598;46.516;-122.928;2023-08-20T08:29:21;99800.80;;;21.85;20.81
81999;BME280;71598;46.516;-122.928;2023-08-20T08:31:46;99801.13;;;21.79;20.85
81999;BME280;71598;46.516;-122.928;2023-08-20T08:34:11;99805.96;;;21.97;20.86
81999;BME280;71598;46.516;-122.928;2023-08-20T08:36:37;99802.18;;;21.52;20.86
81999;BME280;71598;46.516;-122.928;2023-08-20T08:39:03;99800.47;;;21.70;20.87
81999;BME280;71598;46.516;-122.928;2023-08-20T08:41:29;99800.43;;;21.56;20.87
81999;BME280;71598;46.516;-122.928;2023-08-20T08:43:54;99800.17;;;21.73;20.91
81999;BME280;71598;46.516;-122.928;2023-08-20T08:46:19;99802.89;;;21.58;20.93
81999;BME280;71598;46.516;-122.928;2023-08-20T08:48:45;99802.19;;;21.77;20.94
81999;BME280;71598;46.516;-122.928;2023-08-20T08:51:10;99803.31;;;21.86;20.96
81999;BME280;71598;46.516;-122.928;2023-08-20T08:53:36;99807.64;;;21.85;20.97
81999;BME280;71598;46.516;-122.928;2023-08-20T08:56:00;99804.10;;;21.97;20.98
81999;BME280;71598;46.516;-122.928;2023-08-20T08:58:26;99801.18;;;21.80;21.02
81999;BME280;71598;46.516;-122.928;2023-08-20T09:00:51;99798.69;;;21.55;21.00
81999;BME280;71598;46.516;-122.928;2023-08-20T09:03:16;99798.78;;;21.52;21.02
81999;BME280;71598;46.516;-122.928;2023-08-20T09:05:54;99796.04;;;21.73;21.02
81999;BME280;71598;46.516;-122.928;2023-08-20T09:08:08;99795.40;;;21.56;21.04
81999;BME280;71598;46.516;-122.928;2023-08-20T09:10:33;99793.28;;;21.56;21.04
81999;BME280;71598;46.516;-122.928;2023-08-20T09:12:58;99793.34;;;21.66;21.03
81999;BME280;71598;46.516;-122.928;2023-08-20T09:15:32;99790.01;;;21.63;21.04
81999;BME280;71598;46.516;-122.928;2023-08-20T09:17:49;99788.28;;;21.70;21.07
81999;BME280;71598;46.516;-122.928;2023-08-20T09:20:15;99785.22;;;21.56;21.08
81999;BME280;71598;46.516;-122.928;2023-08-20T09:22:49;99784.65;;;21.42;21.08
81999;BME280;71598;46.516;-122.928;2023-08-20T09:25:07;99785.19;;;21.76;21.02
81999;BME280;71598;46.516;-122.928;2023-08-20T09:27:39;99783.52;;;21.64;21.01
81999;BME280;71598;46.516;-122.928;2023-08-20T09:29:57;99785.99;;;21.61;21.03
81999;BME280;71598;46.516;-122.928;2023-08-20T09:32:24;99788.21;;;21.27;21.02
81999;BME280;71598;46.516;-122.928;2023-08-20T09:34:48;99788.57;;;21.77;21.01
81999;BME280;71598;46.516;-122.928;2023-08-20T09:37:14;99786.48;;;21.51;21.05
81999;BME280;71598;46.516;-122.928;2023-08-20T09:39:38;99786.61;;;21.86;21.07
81999;BME280;71598;46.516;-122.928;2023-08-20T09:42:05;99783.88;;;21.60;21.08
81999;BME280;71598;46.516;-122.928;2023-08-20T09:44:33;99781.40;;;21.30;21.08
81999;BME280;71598;46.516;-122.928;2023-08-20T09:46:54;99779.05;;;21.53;21.09
81999;BME280;71598;46.516;-122.928;2023-08-20T09:49:20;99778.56;;;21.52;21.09
81999;BME280;71598;46.516;-122.928;2023-08-20T09:51:46;99778.81;;;21.48;21.08
81999;BME280;71598;46.516;-122.928;2023-08-20T09:54:17;99777.42;;;21.67;21.10
81999;BME280;71598;46.516;-122.928;2023-08-20T09:56:40;99781.23;;;21.59;21.08
81999;BME280;71598;46.516;-122.928;2023-08-20T09:59:01;99776.62;;;21.57;21.08
81999;BME280;71598;46.516;-122.928;2023-08-20T10:01:26;99779.58;;;21.67;21.10
81999;BME280;71598;46.516;-122.928;2023-08-20T10:03:51;99776.64;;;21.54;21.09
81999;BME280;71598;46.516;-122.928;2023-08-20T10:06:18;99772.07;;;21.55;21.12
81999;BME280;71598;46.516;-122.928;2023-08-20T10:08:42;99769.47;;;21.63;21.14
81999;BME280;71598;46.516;-122.928;2023-08-20T10:11:08;99769.78;;;21.26;21.17
81999;BME280;71598;46.516;-122.928;2023-08-20T10:13:33;99770.25;;;21.44;21.14
81999;BME280;71598;46.516;-122.928;2023-08-20T10:15:59;99769.16;;;21.68;21.14
81999;BME280;71598;46.516;-122.928;2023-08-20T10:18:25;99767.65;;;21.52;21.15
81999;BME280;71598;46.516;-122.928;2023-08-20T10:20:51;99770.08;;;21.71;21.17
81999;BME280;71598;46.516;-122.928;2023-08-20T10:23:17;99768.59;;;21.48;21.20
81999;BME280;71598;46.516;-122.928;2023-08-20T10:25:42;99768.41;;;21.50;21.19
81999;BME280;71598;46.516;-122.928;2023-08-20T10:28:14;99767.29;;;21.45;21.21
81999;BME280;71598;46.516;-122.928;2023-08-20T10:30:32;99765.59;;;21.58;21.23
81999;BME280;71598;46.516;-122.928;2023-08-20T10:32:58;99762.60;;;21.44;21.24
81999;BME280;71598;46.516;-122.928;2023-08-20T10:35:27;99763.56;;;21.35;21.22
81999;BME280;71598;46.516;-122.928;2023-08-20T10:38:06;99768.23;;;21.46;21.24
81999;BME280;71598;46.516;-122.928;2023-08-20T10:40:49;99769.57;;;21.58;21.26
81999;BME280;71598;46.516;-122.928;2023-08-20T10:42:42;99768.56;;;21.12;21.28
81999;BME280;71598;46.516;-122.928;2023-08-20T10:47:49;99767.89;;;21.37;21.25
81999;BME280;71598;46.516;-122.928;2023-08-20T10:49:57;99767.07;;;21.46;21.27
81999;BME280;71598;46.516;-122.928;2023-08-20T10:52:23;99764.95;;;21.45;21.28
81999;BME280;71598;46.516;-122.928;2023-08-20T10:54:51;99766.25;;;21.42;21.30
81999;BME280;71598;46.516;-122.928;2023-08-20T10:57:13;99764.41;;;21.35;21.27
81999;BME280;71598;46.516;-122.928;2023-08-20T10:59:41;99764.94;;;21.34;21.27
81999;BME280;71598;46.516;-122.928;2023-08-20T11:02:04;99769.52;;;21.42;21.28
81999;BME280;71598;46.516;-122.928;2023-08-20T11:04:30;99769.37;;;21.55;21.25
81999;BME280;71598;46.516;-122.928;2023-08-20T11:06:56;99768.75;;;21.62;21.29
81999;BME280;71598;46.516;-122.928;2023-08-20T11:09:20;99770.11;;;21.59;21.29
81999;BME280;71598;46.516;-122.928;2023-08-20T11:11:45;99769.29;;;21.36;21.31
81999;BME280;71598;46.516;-122.928;2023-08-20T11:14:14;99767.03;;;21.30;21.33
81999;BME280;71598;46.516;-122.928;2023-08-20T11:16:36;99769.10;;;21.54;21.30
81999;BME280;71598;46.516;-122.928;2023-08-20T11:19:01;99768.03;;;21.17;21.32
81999;BME280;71598;46.516;-122.928;2023-08-20T11:21:28;99769.87;;;21.27;21.32
81999;BME280;71598;46.516;-122.928;2023-08-20T11:23:52;99770.53;;;21.36;21.31
81999;BME280;71598;46.516;-122.928;2023-08-20T11:26:19;99769.04;;;21.26;21.31
81999;BME280;71598;46.516;-122.928;2023-08-20T11:28:46;99769.02;;;21.26;21.31
81999;BME280;71598;46.516;-122.928;2023-08-20T11:31:08;99771.11;;;21.37;21.31
81999;BME280;71598;46.516;-122.928;2023-08-20T11:33:36;99772.06;;;21.22;21.32
81999;BME280;71598;46.516;-122.928;2023-08-20T11:35:59;99775.92;;;21.35;21.31
81999;BME280;71598;46.516;-122.928;2023-08-20T11:38:24;99773.93;;;21.21;21.32
81999;BME280;71598;46.516;-122.928;2023-08-20T11:40:49;99774.41;;;21.44;21.32
81999;BME280;71598;46.516;-122.928;2023-08-20T11:43:15;99773.70;;;21.36;21.30
81999;BME280;71598;46.516;-122.928;2023-08-20T11:45:46;99776.45;;;21.35;21.31
81999;BME280;71598;46.516;-122.928;2023-08-20T11:48:09;99773.36;;;21.34;21.31
81999;BME280;71598;46.516;-122.928;2023-08-20T11:50:31;99772.57;;;21.34;21.29
81999;BME280;71598;46.516;-122.928;2023-08-20T11:53:00;99770.08;;;21.04;21.27
81999;BME280;71598;46.516;-122.928;2023-08-20T11:55:25;99767.04;;;21.31;21.25
81999;BME280;71598;46.516;-122.928;2023-08-20T11:57:51;99769.78;;;21.48;21.22
81999;BME280;71598;46.516;-122.928;2023-08-20T12:00:24;99766.36;;;21.30;21.24
81999;BME280;71598;46.516;-122.928;2023-08-20T12:02:38;99765.39;;;21.23;21.27
81999;BME280;71598;46.516;-122.928;2023-08-20T12:05:03;99764.92;;;21.06;21.30
81999;BME280;71598;46.516;-122.928;2023-08-20T12:07:29;99764.97;;;21.27;21.32
81999;BME280;71598;46.516;-122.928;2023-08-20T12:09:54;99766.14;;;21.27;21.31
81999;BME280;71598;46.516;-122.928;2023-08-20T12:12:20;99765.25;;;21.34;21.33
81999;BME280;71598;46.516;-122.928;2023-08-20T12:14:45;99769.00;;;21.41;21.33
81999;BME280;71598;46.516;-122.928;2023-08-20T12:17:11;99771.71;;;21.07;21.34
81999;BME280;71598;46.516;-122.928;2023-08-20T12:19:36;99773.98;;;21.18;21.33
81999;BME280;71598;46.516;-122.928;2023-08-20T12:22:01;99772.95;;;21.16;21.34